Long Island Mac Arthur Airport
KISP : now visible

Airfield :











YOU CAN JOIN US ON...

 
LOGIN :

Register | Disclaimer

   EN    FR    IT 

 









Legend :    VFR   Marginal VFR   IFR   Intensive IFR   Very Intensive IFR
Visi :
Ceiling :
>= 8 km
>= 3000ft
5 to 8 km
1000 to 3000 ft
1500m to 5 km
500 to 1000 ft
800 to 1500m
200 to 500 ft
< 800m
< 200 ft
Symbols :   Thunderstorms  Fog  Heavy snow  Heavy precipitations  Wind > 20 kt






- Airport Elevation : 99 ft
- IATA code : ISP


KISP - Long Island Mac Arthur

CURRENT METAR :
  • 281556Z 11009KT 10SM -RA BKN070 OVC090 09/00 A3016 RMK AO2 RAB31 SLP215 P0001 T00940000

EXPIRED METARs :
  • 281456Z 10013KT 10SM FEW050 BKN100 OVC150 11/M04 A3014 RMK AO2 SLP207 T01061044 50013

TAF KISP
Valid from the 28 at 15:00 until the 29 at 12:00 UTC


281516Z 2815/2912 10012KT P6SM VCSH SCT050 OVC090
FM281800 12010KT 3SM -RA BR SCT020 BKN045
FM282100 10010KT 3SM -RA BR BKN015
FM282300 09012KT 2SM RA BR OVC006
FM290100 10014G21KT 2SM RA BR OVC006
FM290500 08012G17KT 1SM -RA BR OVC004



MET'MAP, your aeronautical weather chart ! - Copyright ORBIFLY December 2007 - Disclaimer

ORBIFLY MET'MAP TEAM :

Programming & Development : Alexandra Zaïnal
Concept & original design : Baudouin d'Aumeries
Assistance for programming : Marc-Olivier Méhu
Technical & hardware support : Manuel Goepfert

Contact : metmap@orbifly.com




SOURCES & CREDITS :

   NOAA       Earth
Advisory